createdAt,value
2023-05-03T00:02:27.377Z,2.05
2023-05-03T00:04:56.124Z,2.17
2023-05-03T00:07:24.195Z,2.33
2023-05-03T00:09:52.110Z,2.20
2023-05-03T00:12:20.228Z,2.50
2023-05-03T00:14:48.168Z,2.20
2023-05-03T00:17:16.036Z,2.15
2023-05-03T00:19:44.296Z,2.20
2023-05-03T00:22:12.816Z,2.10
2023-05-03T00:24:40.857Z,2.00
2023-05-03T00:27:08.862Z,1.98
2023-05-03T00:29:36.742Z,2.20
2023-05-03T00:32:05.017Z,2.60
2023-05-03T00:34:32.950Z,2.17
2023-05-03T00:37:01.015Z,2.30
2023-05-03T00:39:31.931Z,2.40
2023-05-03T00:42:01.923Z,2.13
2023-05-03T00:44:30.155Z,2.20
2023-05-03T00:46:58.635Z,2.45
2023-05-03T00:49:26.884Z,2.30
2023-05-03T00:51:55.252Z,2.15
2023-05-03T00:54:23.574Z,1.98
2023-05-03T00:56:52.565Z,2.20
2023-05-03T00:59:21.013Z,2.17
2023-05-03T01:01:51.152Z,2.03
2023-05-03T01:04:21.672Z,2.50
2023-05-03T01:07:28.372Z,2.13
2023-05-03T01:10:07.016Z,2.28
2023-05-03T01:12:47.498Z,2.00
2023-05-03T01:15:37.189Z,2.13
2023-05-03T01:18:12.532Z,2.00
2023-05-03T01:20:44.363Z,2.17
2023-05-03T01:23:30.287Z,2.13
2023-05-03T01:25:58.289Z,2.33
2023-05-03T01:28:26.487Z,2.28
2023-05-03T01:30:57.039Z,1.90
2023-05-03T01:33:47.350Z,2.10
2023-05-03T01:36:28.856Z,2.33
2023-05-03T01:38:58.656Z,2.20
2023-05-03T01:41:28.291Z,2.10
2023-05-03T01:43:57.492Z,2.33
2023-05-03T01:46:25.599Z,2.00
2023-05-03T01:48:53.639Z,2.20
2023-05-03T01:51:21.401Z,2.20
2023-05-03T01:53:50.915Z,2.00
2023-05-03T01:56:18.881Z,2.13
2023-05-03T01:58:46.725Z,2.20
2023-05-03T02:01:15.691Z,2.00
2023-05-03T02:03:43.654Z,2.15
2023-05-03T02:06:11.680Z,2.17
2023-05-03T02:08:39.707Z,1.98
2023-05-03T02:11:07.586Z,2.13
2023-05-03T02:13:38.302Z,2.22
2023-05-03T02:16:06.273Z,2.10
2023-05-03T02:18:35.697Z,2.10
2023-05-03T02:21:05.046Z,2.30
2023-05-03T02:23:33.292Z,2.28
2023-05-03T02:26:01.063Z,2.05
2023-05-03T02:28:29.140Z,2.00
2023-05-03T02:30:57.742Z,1.90
2023-05-03T02:33:25.797Z,2.10
2023-05-03T02:35:53.613Z,2.08
2023-05-03T02:38:22.294Z,2.22
2023-05-03T02:40:50.447Z,1.98
2023-05-03T02:43:18.510Z,2.03
2023-05-03T02:45:46.769Z,2.20
2023-05-03T02:48:16.401Z,2.35
2023-05-03T02:50:44.777Z,2.10
2023-05-03T02:53:12.983Z,1.80
2023-05-03T02:55:41.415Z,2.10
2023-05-03T02:58:10.310Z,1.73
2023-05-03T03:00:38.533Z,2.13
2023-05-03T03:03:06.728Z,1.90
2023-05-03T03:05:35.538Z,2.05
2023-05-03T03:08:03.951Z,2.00
2023-05-03T03:10:33.207Z,2.05
2023-05-03T03:13:02.014Z,1.80
2023-05-03T03:15:36.081Z,2.10
2023-05-03T03:18:04.437Z,2.13
2023-05-03T03:20:32.642Z,2.03
2023-05-03T03:23:00.642Z,1.83
2023-05-03T03:25:28.932Z,1.98
2023-05-03T03:27:58.800Z,1.77
2023-05-03T03:30:27.587Z,1.80
2023-05-03T03:33:12.179Z,1.60
2023-05-03T03:35:42.888Z,1.73
2023-05-03T03:38:12.840Z,1.80
2023-05-03T03:40:49.242Z,1.77
2023-05-03T03:43:17.893Z,2.00
2023-05-03T03:45:47.102Z,2.00
2023-05-03T03:48:17.162Z,1.90
2023-05-03T03:50:45.867Z,1.77
2023-05-03T03:53:18.607Z,1.75
2023-05-03T03:55:47.419Z,2.00
2023-05-03T03:58:17.919Z,1.88
2023-05-03T04:00:46.575Z,1.95
2023-05-03T04:03:17.996Z,1.70
2023-05-03T04:05:46.636Z,2.10
2023-05-03T04:08:15.713Z,1.83
2023-05-03T04:10:46.304Z,1.73
2023-05-03T04:13:14.652Z,2.10
2023-05-03T04:15:43.028Z,1.90
2023-05-03T04:18:11.508Z,1.80
2023-05-03T04:20:41.910Z,1.65
2023-05-03T04:23:11.426Z,2.00
2023-05-03T04:25:46.956Z,2.05
2023-05-03T04:28:16.503Z,2.10
2023-05-03T04:30:48.574Z,1.75
2023-05-03T04:33:22.315Z,2.15
2023-05-03T04:35:52.781Z,1.90
2023-05-03T04:38:20.887Z,2.15
2023-05-03T04:40:49.592Z,1.73
2023-05-03T04:43:18.631Z,1.80
2023-05-03T04:45:48.527Z,1.83
2023-05-03T04:48:21.059Z,1.88
2023-05-03T04:50:49.225Z,1.83
2023-05-03T04:53:20.079Z,1.80
2023-05-03T04:55:54.432Z,2.00
2023-05-03T04:58:22.583Z,2.40
2023-05-03T05:00:51.453Z,3.13
2023-05-03T05:03:26.720Z,5.03
2023-05-03T05:05:54.985Z,4.82
2023-05-03T05:08:23.172Z,6.00
2023-05-03T05:10:56.166Z,5.65
2023-05-03T05:13:29.241Z,3.33
2023-05-03T05:15:58.393Z,4.05
2023-05-03T05:18:26.800Z,3.10
2023-05-03T05:20:56.936Z,3.45
2023-05-03T05:23:25.611Z,3.33
2023-05-03T05:25:54.408Z,2.97
2023-05-03T05:28:23.344Z,3.10
2023-05-03T05:30:51.912Z,2.85
2023-05-03T05:33:20.686Z,2.80
2023-05-03T05:35:50.696Z,2.80
2023-05-03T05:38:22.098Z,3.10
2023-05-03T05:40:52.267Z,2.60
2023-05-03T05:43:21.227Z,2.50
2023-05-03T05:45:50.352Z,2.60
2023-05-03T05:48:19.167Z,2.80
2023-05-03T05:50:49.544Z,2.97
2023-05-03T05:53:18.043Z,2.67
2023-05-03T05:55:53.868Z,2.58
2023-05-03T05:58:22.168Z,2.45
2023-05-03T06:00:59.191Z,2.25
2023-05-03T06:03:27.604Z,2.58
2023-05-03T06:05:56.387Z,2.50
2023-05-03T06:08:27.226Z,2.35
2023-05-03T06:10:55.444Z,2.28
2023-05-03T06:13:25.278Z,2.42
2023-05-03T06:15:54.233Z,2.40
2023-05-03T06:18:22.513Z,2.40
2023-05-03T06:20:51.112Z,2.03
2023-05-03T06:23:20.983Z,2.15
2023-05-03T06:25:49.854Z,2.53
2023-05-03T06:28:19.197Z,2.13
2023-05-03T06:30:51.013Z,2.40
2023-05-03T06:33:19.322Z,2.40
2023-05-03T06:35:50.244Z,2.55
2023-05-03T06:38:20.122Z,2.10
2023-05-03T06:40:49.198Z,2.40
2023-05-03T06:43:17.516Z,2.22
2023-05-03T06:45:55.444Z,2.50
2023-05-03T06:48:24.869Z,2.13
2023-05-03T06:50:53.361Z,2.20
2023-05-03T06:53:21.562Z,2.40
2023-05-03T06:55:49.716Z,2.28
2023-05-03T06:58:17.995Z,2.50
2023-05-03T07:00:46.932Z,2.25
2023-05-03T07:03:15.246Z,2.05
2023-05-03T07:05:43.684Z,2.60
2023-05-03T07:08:11.915Z,2.33
2023-05-03T07:10:42.077Z,2.53
2023-05-03T07:13:10.443Z,2.50
2023-05-03T07:15:38.779Z,2.78
2023-05-03T07:18:06.928Z,2.58
2023-05-03T07:20:35.037Z,2.70
2023-05-03T07:23:03.833Z,2.55
2023-05-03T07:25:33.007Z,3.05
2023-05-03T07:28:01.609Z,2.50
2023-05-03T07:30:29.877Z,2.58
2023-05-03T07:32:58.287Z,2.30
2023-05-03T07:35:27.407Z,2.50
2023-05-03T07:37:57.032Z,2.85
2023-05-03T07:40:25.435Z,2.67
2023-05-03T07:42:53.596Z,2.30
2023-05-03T07:45:22.044Z,2.70
2023-05-03T07:47:50.335Z,2.33
2023-05-03T07:50:18.430Z,2.53
2023-05-03T07:52:46.913Z,2.40
2023-05-03T07:55:17.154Z,2.30
2023-05-03T07:57:45.592Z,2.67
2023-05-03T08:00:15.190Z,2.60
2023-05-03T08:02:43.644Z,3.20
2023-05-03T08:05:15.025Z,2.75
2023-05-03T08:07:44.660Z,2.30
2023-05-03T08:10:15.807Z,2.50
2023-05-03T08:12:44.587Z,2.85
2023-05-03T08:15:12.824Z,2.70
2023-05-03T08:17:43.436Z,2.60
2023-05-03T08:20:12.916Z,2.80
2023-05-03T08:22:41.616Z,2.58
2023-05-03T08:25:10.183Z,2.50
2023-05-03T08:27:39.389Z,2.70
2023-05-03T08:30:08.759Z,2.78
2023-05-03T08:32:37.077Z,3.10
2023-05-03T08:35:07.556Z,2.72
2023-05-03T08:37:42.896Z,2.90
2023-05-03T08:40:14.059Z,2.92
2023-05-03T08:42:46.415Z,2.58
2023-05-03T08:45:16.675Z,3.20
2023-05-03T08:47:46.073Z,2.40
2023-05-03T08:50:16.289Z,2.78
2023-05-03T08:52:44.633Z,2.65
2023-05-03T08:55:13.070Z,2.90
2023-05-03T08:57:41.563Z,2.63
2023-05-03T09:00:11.224Z,2.53
2023-05-03T09:02:40.319Z,2.58
2023-05-03T09:05:35.591Z,2.60
2023-05-03T09:08:08.683Z,2.90
2023-05-03T09:10:41.614Z,2.67
2023-05-03T09:13:10.865Z,2.80
2023-05-03T09:15:39.264Z,2.50
2023-05-03T09:18:13.202Z,3.03
2023-05-03T09:20:42.671Z,2.70
2023-05-03T09:23:11.160Z,2.67
2023-05-03T09:25:51.647Z,2.47
2023-05-03T09:28:21.108Z,2.72
2023-05-03T09:30:50.762Z,2.58
2023-05-03T09:33:29.982Z,2.55
2023-05-03T09:36:00.125Z,2.58
2023-05-03T09:38:46.197Z,2.50
2023-05-03T09:41:15.363Z,2.60
2023-05-03T09:43:52.507Z,2.33
2023-05-03T09:46:20.828Z,2.60
2023-05-03T09:48:50.534Z,2.67
2023-05-03T09:51:19.128Z,2.55
2023-05-03T09:53:48.512Z,2.40
2023-05-03T09:56:17.524Z,2.70
2023-05-03T09:58:45.672Z,2.78
2023-05-03T10:01:16.588Z,2.70
2023-05-03T10:03:50.731Z,2.40
2023-05-03T10:06:23.010Z,2.60
2023-05-03T10:08:56.355Z,2.55
2023-05-03T10:11:27.506Z,2.50
2023-05-03T10:13:56.722Z,2.40
2023-05-03T10:16:29.650Z,2.60
2023-05-03T10:19:14.543Z,2.42
2023-05-03T10:22:08.103Z,2.70
2023-05-03T10:25:00.445Z,2.70
2023-05-03T10:27:52.903Z,2.50
2023-05-03T10:30:35.021Z,2.70
2023-05-03T10:33:14.893Z,2.65
2023-05-03T10:35:54.075Z,2.63
2023-05-03T10:38:27.635Z,2.60
2023-05-03T10:40:57.212Z,2.47
2023-05-03T10:43:31.653Z,2.45
2023-05-03T10:46:05.208Z,2.65
2023-05-03T10:51:37.421Z,2.22
2023-05-03T10:54:05.966Z,2.50
2023-05-03T10:56:34.459Z,2.47
2023-05-03T10:59:02.961Z,2.38
2023-05-03T11:01:32.531Z,2.40
2023-05-03T11:04:17.157Z,2.60
2023-05-03T11:06:46.848Z,2.30
2023-05-03T11:09:15.880Z,2.50
2023-05-03T11:11:44.054Z,2.20
2023-05-03T11:14:14.065Z,2.45
2023-05-03T11:16:48.385Z,2.47
2023-05-03T11:19:16.720Z,2.33
2023-05-03T11:21:46.492Z,2.50
2023-05-03T11:24:16.139Z,2.60
2023-05-03T11:26:44.323Z,2.38
2023-05-03T11:29:14.324Z,2.40
2023-05-03T11:31:43.533Z,2.30
2023-05-03T11:34:13.030Z,2.40
2023-05-03T11:36:44.007Z,2.30
2023-05-03T11:39:14.725Z,2.17
2023-05-03T11:41:43.179Z,2.42
2023-05-03T11:44:17.302Z,2.72
2023-05-03T11:46:48.214Z,2.30
2023-05-03T11:49:20.058Z,2.38
2023-05-03T11:51:51.722Z,2.42
2023-05-03T11:54:27.032Z,2.30
2023-05-03T11:56:58.269Z,2.58
2023-05-03T11:59:40.335Z,2.40
2023-05-03T12:02:12.390Z,2.45
2023-05-03T12:04:43.573Z,2.85
2023-05-03T12:07:15.206Z,2.53
2023-05-03T12:09:53.280Z,2.65
2023-05-03T12:12:32.236Z,2.50
2023-05-03T12:15:04.355Z,2.22
2023-05-03T12:17:44.013Z,2.65
2023-05-03T12:22:58.120Z,2.53
2023-05-03T12:25:29.000Z,2.70
2023-05-03T12:28:18.048Z,2.50
2023-05-03T12:30:48.604Z,2.50
2023-05-03T12:33:21.908Z,2.40
2023-05-03T12:35:53.577Z,2.28
2023-05-03T12:38:24.852Z,2.40
2023-05-03T12:40:54.108Z,2.33
2023-05-03T12:43:23.078Z,2.30
2023-05-03T12:46:01.845Z,2.55
2023-05-03T12:48:38.319Z,2.42
2023-05-03T12:51:19.462Z,2.45
2023-05-03T12:53:54.368Z,2.40
2023-05-03T12:56:24.773Z,2.50
2023-05-03T13:04:36.420Z,2.47
2023-05-03T13:06:57.700Z,2.40
2023-05-03T13:09:37.712Z,2.22
2023-05-03T13:12:18.287Z,2.30
2023-05-03T13:14:50.976Z,2.35
2023-05-03T13:17:23.881Z,2.40
2023-05-03T13:19:53.408Z,2.38
2023-05-03T13:22:22.496Z,2.38
2023-05-03T13:24:51.016Z,2.08
2023-05-03T13:27:19.281Z,2.40
2023-05-03T13:29:49.289Z,2.08
2023-05-03T13:32:18.124Z,2.55
2023-05-03T13:34:46.605Z,2.33
2023-05-03T13:37:18.783Z,2.30
2023-05-03T13:39:47.429Z,2.17
2023-05-03T13:42:16.200Z,2.00
2023-05-03T13:44:48.041Z,2.25
2023-05-03T13:47:16.760Z,2.40
2023-05-03T13:49:45.195Z,2.50
2023-05-03T13:52:13.376Z,2.20
2023-05-03T13:54:42.619Z,2.20
2023-05-03T13:57:10.957Z,2.30
2023-05-03T13:59:39.353Z,2.40
2023-05-03T14:02:07.840Z,2.38
2023-05-03T14:04:36.308Z,2.20
2023-05-03T14:07:04.754Z,2.15
2023-05-03T14:09:33.196Z,2.30
2023-05-03T14:12:01.509Z,2.20
2023-05-03T14:14:30.132Z,2.47
2023-05-03T14:16:58.625Z,2.25
2023-05-03T14:19:27.201Z,2.33
2023-05-03T14:21:59.842Z,1.98
2023-05-03T14:24:28.113Z,2.30
2023-05-03T14:26:56.516Z,2.40
2023-05-03T14:29:24.980Z,2.10
2023-05-03T14:31:53.457Z,2.17
2023-05-03T14:34:22.224Z,2.10
2023-05-03T14:36:50.365Z,2.30
2023-05-03T14:39:18.686Z,2.33
2023-05-03T14:41:50.212Z,2.22
2023-05-03T14:44:18.652Z,2.20
2023-05-03T14:46:47.271Z,2.40
2023-05-03T14:49:17.814Z,1.95
2023-05-03T14:51:46.502Z,2.20
2023-05-03T14:54:14.711Z,2.20
2023-05-03T14:56:43.266Z,2.28
2023-05-03T14:59:11.502Z,2.78
2023-05-03T15:01:39.959Z,2.13
2023-05-03T15:04:10.884Z,2.30
2023-05-03T15:06:39.823Z,2.22
2023-05-03T15:09:09.618Z,2.30
2023-05-03T15:11:37.890Z,2.25
2023-05-03T15:14:06.321Z,2.25
2023-05-03T15:16:37.214Z,2.00
2023-05-03T15:19:07.594Z,2.22
2023-05-03T15:21:47.371Z,2.25
2023-05-03T15:24:16.658Z,2.22
2023-05-03T15:26:45.338Z,2.38
2023-05-03T15:29:15.158Z,2.17
2023-05-03T15:31:47.203Z,2.45
2023-05-03T15:34:15.754Z,2.05
2023-05-03T15:36:44.007Z,2.75
2023-05-03T15:39:13.307Z,2.13
2023-05-03T15:41:42.023Z,2.25
2023-05-03T15:44:10.396Z,2.08
2023-05-03T15:46:40.175Z,2.00
2023-05-03T15:49:12.138Z,2.42
2023-05-03T15:51:40.508Z,2.10
2023-05-03T15:54:08.717Z,2.15
2023-05-03T15:56:37.952Z,2.20
2023-05-03T15:59:06.099Z,2.17
2023-05-03T16:01:34.151Z,2.42
2023-05-03T16:04:02.354Z,2.30
2023-05-03T16:06:30.433Z,2.25
2023-05-03T16:08:58.466Z,2.20
2023-05-03T16:11:26.576Z,2.30
2023-05-03T16:13:54.666Z,2.50
2023-05-03T16:16:22.959Z,2.50
2023-05-03T16:18:51.243Z,2.30
2023-05-03T16:21:19.423Z,2.00
2023-05-03T16:23:49.068Z,2.15
2023-05-03T16:26:19.436Z,2.53
2023-05-03T16:28:49.518Z,2.58
2023-05-03T16:31:18.603Z,2.30
2023-05-03T16:33:46.799Z,2.40
2023-05-03T16:36:14.955Z,2.15
2023-05-03T16:38:43.124Z,2.60
2023-05-03T16:41:11.279Z,2.20
2023-05-03T16:43:39.921Z,2.40
2023-05-03T16:46:08.300Z,2.30
2023-05-03T16:48:36.634Z,2.10
2023-05-03T16:51:04.889Z,2.33
2023-05-03T16:53:33.108Z,2.33
2023-05-03T16:56:01.854Z,2.00
2023-05-03T16:58:29.885Z,2.25
2023-05-03T17:00:58.326Z,2.40
2023-05-03T17:03:26.742Z,2.40
2023-05-03T17:05:54.983Z,2.20
2023-05-03T17:08:23.032Z,2.35
2023-05-03T17:10:51.217Z,2.40
2023-05-03T17:13:19.430Z,2.28
2023-05-03T17:15:48.438Z,2.30
2023-05-03T17:18:20.207Z,2.35
2023-05-03T17:20:48.644Z,2.40
2023-05-03T17:23:18.212Z,2.10
2023-05-03T17:25:48.579Z,2.33
2023-05-03T17:28:16.685Z,2.30
2023-05-03T17:30:44.851Z,2.30
2023-05-03T17:33:13.124Z,2.35
2023-05-03T17:35:41.615Z,2.28
2023-05-03T17:38:10.074Z,2.10
2023-05-03T17:40:41.245Z,2.15
2023-05-03T17:43:09.731Z,2.03
2023-05-03T17:45:37.890Z,2.55
2023-05-03T17:48:06.769Z,2.25
2023-05-03T17:50:35.063Z,2.50
2023-05-03T17:53:03.460Z,2.60
2023-05-03T17:55:36.326Z,2.47
2023-05-03T17:58:06.256Z,2.40
2023-05-03T18:00:34.545Z,2.20
2023-05-03T18:03:03.176Z,2.63
2023-05-03T18:05:37.008Z,2.08
2023-05-03T18:10:33.636Z,2.30
2023-05-03T18:13:01.765Z,2.00
2023-05-03T18:15:30.107Z,2.35
2023-05-03T18:17:58.502Z,2.45
2023-05-03T18:20:26.728Z,2.60
2023-05-03T18:22:54.711Z,2.45
2023-05-03T18:25:22.796Z,2.60
2023-05-03T18:27:50.859Z,2.60
2023-05-03T18:30:19.026Z,2.38
2023-05-03T18:32:47.470Z,2.50
2023-05-03T18:35:15.591Z,2.25
2023-05-03T18:37:43.671Z,2.50
2023-05-03T18:40:12.126Z,2.40
2023-05-03T18:42:40.272Z,2.55
2023-05-03T18:45:09.383Z,2.30
2023-05-03T18:47:37.650Z,2.55
2023-05-03T18:50:06.653Z,2.60
2023-05-03T18:52:34.886Z,2.30
2023-05-03T18:55:03.041Z,2.53
2023-05-03T18:57:31.021Z,2.53
2023-05-03T19:00:07.857Z,2.33
2023-05-03T19:02:36.410Z,2.60
2023-05-03T19:05:05.559Z,2.90
2023-05-03T19:07:33.848Z,2.42
2023-05-03T19:10:02.016Z,2.70
2023-05-03T19:12:30.295Z,2.40
2023-05-03T19:14:58.429Z,2.40
2023-05-03T19:17:26.549Z,2.53
2023-05-03T19:19:54.735Z,2.45
2023-05-03T19:22:22.821Z,2.55
2023-05-03T19:24:51.042Z,2.47
2023-05-03T19:27:19.161Z,2.65
2023-05-03T19:29:47.094Z,2.60
2023-05-03T19:32:15.305Z,2.50
2023-05-03T19:34:43.562Z,2.45
2023-05-03T19:37:11.901Z,2.78
2023-05-03T19:39:39.988Z,2.50
2023-05-03T19:42:09.139Z,2.65
2023-05-03T19:44:37.617Z,2.50
2023-05-03T19:47:05.629Z,2.30
2023-05-03T19:49:33.686Z,2.60
2023-05-03T19:52:02.475Z,2.50
2023-05-03T19:54:31.195Z,2.40
2023-05-03T19:57:08.862Z,2.55
2023-05-03T19:59:36.816Z,2.60
2023-05-03T20:02:04.888Z,2.50
2023-05-03T20:04:32.893Z,2.50
2023-05-03T20:07:01.161Z,2.53
2023-05-03T20:09:29.171Z,2.50
2023-05-03T20:12:02.287Z,2.40
2023-05-03T20:14:30.312Z,2.70
2023-05-03T20:16:58.492Z,2.50
2023-05-03T20:19:26.903Z,2.65
2023-05-03T20:21:55.052Z,2.42
2023-05-03T20:24:23.699Z,2.60
2023-05-03T20:26:52.642Z,2.55
2023-05-03T20:29:20.799Z,2.42
2023-05-03T20:31:51.932Z,2.35
2023-05-03T20:34:20.155Z,2.45
2023-05-03T20:36:48.404Z,2.70
2023-05-03T20:39:16.636Z,2.58
2023-05-03T20:41:44.894Z,2.60
2023-05-03T20:44:13.891Z,2.63
2023-05-03T20:46:41.957Z,2.55
2023-05-03T20:49:10.422Z,2.50
2023-05-03T20:51:38.718Z,2.50
2023-05-03T20:54:06.837Z,2.55
2023-05-03T20:56:35.221Z,2.65
2023-05-03T20:59:03.742Z,2.58
2023-05-03T21:01:32.152Z,2.50
2023-05-03T21:04:00.216Z,2.55
2023-05-03T21:06:28.171Z,2.58
2023-05-03T21:08:56.217Z,2.40
2023-05-03T21:11:24.413Z,2.45
2023-05-03T21:13:52.630Z,2.47
2023-05-03T21:16:20.578Z,2.40
2023-05-03T21:18:49.013Z,2.45
2023-05-03T21:21:16.937Z,2.58
2023-05-03T21:23:45.353Z,2.65
2023-05-03T21:26:13.389Z,2.47
2023-05-03T21:28:41.421Z,2.63
2023-05-03T21:31:09.889Z,2.80
2023-05-03T21:33:38.062Z,2.50
2023-05-03T21:36:07.079Z,2.65
2023-05-03T21:38:35.210Z,2.60
2023-05-03T21:41:07.408Z,2.35
2023-05-03T21:43:36.501Z,2.28
2023-05-03T21:46:10.831Z,2.65
2023-05-03T21:48:40.420Z,2.55
2023-05-03T21:51:17.200Z,2.33
2023-05-03T21:53:45.177Z,2.28
2023-05-03T21:56:13.555Z,2.40
2023-05-03T21:58:44.443Z,2.80
2023-05-03T22:01:15.315Z,2.50
2023-05-03T22:03:43.363Z,2.33
2023-05-03T22:06:11.925Z,2.30
2023-05-03T22:08:40.129Z,2.60
2023-05-03T22:11:08.389Z,2.42
2023-05-03T22:13:49.658Z,2.30
2023-05-03T22:16:19.260Z,2.50
2023-05-03T22:18:47.372Z,2.20
2023-05-03T22:21:15.222Z,2.40
2023-05-03T22:23:43.244Z,2.45
2023-05-03T22:26:11.697Z,2.40
2023-05-03T22:28:39.810Z,2.40
2023-05-03T22:31:07.832Z,2.33
2023-05-03T22:33:35.905Z,2.50
2023-05-03T22:36:04.556Z,2.35
2023-05-03T22:38:32.678Z,2.30
2023-05-03T22:41:00.557Z,2.22
2023-05-03T22:43:28.527Z,2.72
2023-05-03T22:45:56.687Z,2.40
2023-05-03T22:48:29.793Z,2.28
2023-05-03T22:50:58.535Z,2.35
2023-05-03T22:53:26.728Z,2.70
2023-05-03T22:56:04.339Z,2.50
2023-05-03T22:58:33.119Z,2.70
2023-05-03T23:01:01.527Z,2.35
2023-05-03T23:03:29.654Z,2.28
2023-05-03T23:05:57.807Z,2.55
2023-05-03T23:08:25.757Z,2.35
2023-05-03T23:10:56.384Z,2.70
2023-05-03T23:13:24.562Z,2.40
2023-05-03T23:15:52.347Z,2.60
2023-05-03T23:18:21.206Z,2.40
2023-05-03T23:20:49.634Z,2.13
2023-05-03T23:23:17.561Z,2.28
2023-05-03T23:25:45.963Z,2.40
2023-05-03T23:28:14.546Z,2.47
2023-05-03T23:30:44.353Z,2.40
2023-05-03T23:33:12.994Z,2.47
2023-05-03T23:35:41.851Z,2.50
2023-05-03T23:38:09.846Z,2.50
2023-05-03T23:40:37.840Z,2.53
2023-05-03T23:43:05.935Z,2.30
2023-05-03T23:45:33.941Z,2.50
2023-05-03T23:48:02.166Z,2.38
2023-05-03T23:50:30.185Z,2.60
2023-05-03T23:52:58.816Z,2.47
2023-05-03T23:55:26.889Z,2.70
2023-05-03T23:57:54.775Z,2.30
